sensor_id;sensor_type;location;lat;lon;timestamp;P1;durP1;ratioP1;P2;durP2;ratioP2
14766;SDS011;7475;53.558;9.970;2023-02-28T00:01:07;3.90;;;1.48;;
14766;SDS011;7475;53.558;9.970;2023-02-28T00:03:33;3.05;;;1.20;;
14766;SDS011;7475;53.558;9.970;2023-02-28T00:06:00;3.17;;;1.42;;
14766;SDS011;7475;53.558;9.970;2023-02-28T00:08:26;2.70;;;1.08;;
14766;SDS011;7475;53.558;9.970;2023-02-28T00:10:52;3.57;;;1.20;;
14766;SDS011;7475;53.558;9.970;2023-02-28T00:13:17;4.57;;;1.30;;
14766;SDS011;7475;53.558;9.970;2023-02-28T00:15:42;5.80;;;1.70;;
14766;SDS011;7475;53.558;9.970;2023-02-28T00:18:07;5.57;;;1.70;;
14766;SDS011;7475;53.558;9.970;2023-02-28T00:20:32;3.33;;;1.60;;
14766;SDS011;7475;53.558;9.970;2023-02-28T00:22:58;4.43;;;1.93;;
14766;SDS011;7475;53.558;9.970;2023-02-28T00:25:23;3.73;;;1.87;;
14766;SDS011;7475;53.558;9.970;2023-02-28T00:27:49;2.93;;;1.73;;
14766;SDS011;7475;53.558;9.970;2023-02-28T00:30:16;3.67;;;1.73;;
14766;SDS011;7475;53.558;9.970;2023-02-28T00:32:41;5.70;;;2.20;;
14766;SDS011;7475;53.558;9.970;2023-02-28T00:35:07;4.67;;;1.63;;
14766;SDS011;7475;53.558;9.970;2023-02-28T00:37:33;3.43;;;1.60;;
14766;SDS011;7475;53.558;9.970;2023-02-28T00:39:58;4.57;;;1.87;;
14766;SDS011;7475;53.558;9.970;2023-02-28T00:42:23;4.93;;;1.73;;
14766;SDS011;7475;53.558;9.970;2023-02-28T00:44:49;4.70;;;1.40;;
14766;SDS011;7475;53.558;9.970;2023-02-28T00:47:14;2.60;;;1.53;;
14766;SDS011;7475;53.558;9.970;2023-02-28T00:49:39;2.40;;;1.40;;
14766;SDS011;7475;53.558;9.970;2023-02-28T00:52:05;4.30;;;1.83;;
14766;SDS011;7475;53.558;9.970;2023-02-28T00:54:30;3.73;;;1.87;;
14766;SDS011;7475;53.558;9.970;2023-02-28T00:56:55;3.03;;;1.50;;
14766;SDS011;7475;53.558;9.970;2023-02-28T00:59:20;4.50;;;1.43;;
14766;SDS011;7475;53.558;9.970;2023-02-28T01:01:46;3.07;;;1.47;;
14766;SDS011;7475;53.558;9.970;2023-02-28T01:04:11;2.57;;;1.50;;
14766;SDS011;7475;53.558;9.970;2023-02-28T01:06:37;3.83;;;1.43;;
14766;SDS011;7475;53.558;9.970;2023-02-28T01:09:02;5.35;;;1.60;;
14766;SDS011;7475;53.558;9.970;2023-02-28T01:11:28;2.97;;;1.60;;
14766;SDS011;7475;53.558;9.970;2023-02-28T01:13:53;6.40;;;1.53;;
14766;SDS011;7475;53.558;9.970;2023-02-28T01:16:18;3.27;;;1.70;;
14766;SDS011;7475;53.558;9.970;2023-02-28T01:18:43;2.43;;;1.50;;
14766;SDS011;7475;53.558;9.970;2023-02-28T01:21:12;3.33;;;1.37;;
14766;SDS011;7475;53.558;9.970;2023-02-28T01:23:38;4.00;;;1.60;;
14766;SDS011;7475;53.558;9.970;2023-02-28T01:26:05;4.17;;;1.50;;
14766;SDS011;7475;53.558;9.970;2023-02-28T01:28:30;5.05;;;1.95;;
14766;SDS011;7475;53.558;9.970;2023-02-28T01:30:55;3.93;;;1.83;;
14766;SDS011;7475;53.558;9.970;2023-02-28T01:33:20;10.47;;;4.57;;
14766;SDS011;7475;53.558;9.970;2023-02-28T01:35:45;14.63;;;6.17;;
14766;SDS011;7475;53.558;9.970;2023-02-28T01:38:11;21.03;;;8.40;;
14766;SDS011;7475;53.558;9.970;2023-02-28T01:40:36;20.63;;;8.30;;
14766;SDS011;7475;53.558;9.970;2023-02-28T01:43:01;17.00;;;7.10;;
14766;SDS011;7475;53.558;9.970;2023-02-28T01:45:27;11.63;;;5.60;;
14766;SDS011;7475;53.558;9.970;2023-02-28T01:48:04;14.33;;;6.83;;
14766;SDS011;7475;53.558;9.970;2023-02-28T01:50:32;22.13;;;8.20;;
14766;SDS011;7475;53.558;9.970;2023-02-28T01:53:00;15.27;;;7.47;;
14766;SDS011;7475;53.558;9.970;2023-02-28T01:55:25;17.03;;;7.50;;
14766;SDS011;7475;53.558;9.970;2023-02-28T01:57:55;11.30;;;5.90;;
14766;SDS011;7475;53.558;9.970;2023-02-28T02:00:22;17.27;;;8.82;;
14766;SDS011;7475;53.558;9.970;2023-02-28T02:02:49;39.13;;;16.77;;
14766;SDS011;7475;53.558;9.970;2023-02-28T02:05:16;51.90;;;25.47;;
14766;SDS011;7475;53.558;9.970;2023-02-28T02:07:42;48.97;;;21.83;;
14766;SDS011;7475;53.558;9.970;2023-02-28T02:10:15;28.23;;;14.07;;
14766;SDS011;7475;53.558;9.970;2023-02-28T02:15:24;29.43;;;13.20;;
14766;SDS011;7475;53.558;9.970;2023-02-28T02:17:52;27.17;;;12.13;;
14766;SDS011;7475;53.558;9.970;2023-02-28T02:28:00;49.33;;;23.43;;
14766;SDS011;7475;53.558;9.970;2023-02-28T02:33:18;35.67;;;17.37;;
14766;SDS011;7475;53.558;9.970;2023-02-28T02:36:05;43.17;;;19.33;;
14766;SDS011;7475;53.558;9.970;2023-02-28T02:38:49;43.10;;;20.73;;
14766;SDS011;7475;53.558;9.970;2023-02-28T02:41:19;40.20;;;19.87;;
14766;SDS011;7475;53.558;9.970;2023-02-28T02:43:48;41.10;;;20.53;;
14766;SDS011;7475;53.558;9.970;2023-02-28T02:46:20;49.17;;;22.90;;
14766;SDS011;7475;53.558;9.970;2023-02-28T02:48:46;61.80;;;27.73;;
14766;SDS011;7475;53.558;9.970;2023-02-28T02:51:13;63.60;;;32.00;;
14766;SDS011;7475;53.558;9.970;2023-02-28T02:56:14;86.50;;;38.80;;
14766;SDS011;7475;53.558;9.970;2023-02-28T02:58:41;103.07;;;44.50;;
14766;SDS011;7475;53.558;9.970;2023-02-28T03:01:07;116.00;;;51.30;;
14766;SDS011;7475;53.558;9.970;2023-02-28T03:03:34;121.57;;;53.40;;
14766;SDS011;7475;53.558;9.970;2023-02-28T03:06:00;117.90;;;50.87;;
14766;SDS011;7475;53.558;9.970;2023-02-28T03:08:27;108.37;;;49.63;;
14766;SDS011;7475;53.558;9.970;2023-02-28T03:11:00;114.23;;;48.93;;
14766;SDS011;7475;53.558;9.970;2023-02-28T03:18:46;103.43;;;42.90;;
14766;SDS011;7475;53.558;9.970;2023-02-28T03:21:32;72.10;;;32.87;;
14766;SDS011;7475;53.558;9.970;2023-02-28T03:26:31;49.13;;;21.83;;
14766;SDS011;7475;53.558;9.970;2023-02-28T03:29:08;49.23;;;21.27;;
14766;SDS011;7475;53.558;9.970;2023-02-28T03:31:41;46.07;;;21.67;;
14766;SDS011;7475;53.558;9.970;2023-02-28T03:34:12;44.80;;;18.60;;
14766;SDS011;7475;53.558;9.970;2023-02-28T03:36:39;43.17;;;20.33;;
14766;SDS011;7475;53.558;9.970;2023-02-28T03:39:09;35.13;;;16.23;;
14766;SDS011;7475;53.558;9.970;2023-02-28T03:41:45;35.37;;;15.07;;
14766;SDS011;7475;53.558;9.970;2023-02-28T03:44:14;25.43;;;11.87;;
14766;SDS011;7475;53.558;9.970;2023-02-28T03:46:42;25.97;;;11.97;;
14766;SDS011;7475;53.558;9.970;2023-02-28T03:49:12;16.60;;;8.30;;
14766;SDS011;7475;53.558;9.970;2023-02-28T03:51:39;15.50;;;7.50;;
14766;SDS011;7475;53.558;9.970;2023-02-28T03:54:06;16.93;;;6.87;;
14766;SDS011;7475;53.558;9.970;2023-02-28T03:56:40;12.83;;;6.13;;
14766;SDS011;7475;53.558;9.970;2023-02-28T04:01:44;13.40;;;6.13;;
14766;SDS011;7475;53.558;9.970;2023-02-28T04:04:10;12.20;;;5.90;;
14766;SDS011;7475;53.558;9.970;2023-02-28T04:06:35;7.87;;;4.03;;
14766;SDS011;7475;53.558;9.970;2023-02-28T04:09:01;6.27;;;4.03;;
14766;SDS011;7475;53.558;9.970;2023-02-28T04:14:00;7.57;;;3.90;;
14766;SDS011;7475;53.558;9.970;2023-02-28T04:16:25;9.17;;;4.53;;
14766;SDS011;7475;53.558;9.970;2023-02-28T04:18:50;7.20;;;3.60;;
14766;SDS011;7475;53.558;9.970;2023-02-28T04:21:15;6.90;;;4.07;;
14766;SDS011;7475;53.558;9.970;2023-02-28T04:23:40;9.37;;;4.27;;
14766;SDS011;7475;53.558;9.970;2023-02-28T04:26:06;5.30;;;3.20;;
14766;SDS011;7475;53.558;9.970;2023-02-28T04:28:31;6.97;;;3.37;;
14766;SDS011;7475;53.558;9.970;2023-02-28T04:30:57;7.57;;;4.20;;
14766;SDS011;7475;53.558;9.970;2023-02-28T04:33:24;7.80;;;3.53;;
14766;SDS011;7475;53.558;9.970;2023-02-28T04:35:57;7.00;;;3.63;;
14766;SDS011;7475;53.558;9.970;2023-02-28T04:38:23;9.83;;;4.70;;
14766;SDS011;7475;53.558;9.970;2023-02-28T04:40:48;7.90;;;4.13;;
14766;SDS011;7475;53.558;9.970;2023-02-28T04:43:13;8.80;;;4.20;;
14766;SDS011;7475;53.558;9.970;2023-02-28T04:45:38;8.60;;;4.67;;
14766;SDS011;7475;53.558;9.970;2023-02-28T04:48:03;12.33;;;4.03;;
14766;SDS011;7475;53.558;9.970;2023-02-28T04:50:28;9.30;;;4.53;;
14766;SDS011;7475;53.558;9.970;2023-02-28T04:52:53;10.63;;;4.93;;
14766;SDS011;7475;53.558;9.970;2023-02-28T04:55:19;8.23;;;4.27;;
14766;SDS011;7475;53.558;9.970;2023-02-28T04:57:44;22.50;;;10.07;;
14766;SDS011;7475;53.558;9.970;2023-02-28T05:00:10;9.03;;;4.77;;
14766;SDS011;7475;53.558;9.970;2023-02-28T05:02:36;9.43;;;4.67;;
14766;SDS011;7475;53.558;9.970;2023-02-28T05:05:01;7.50;;;4.57;;
14766;SDS011;7475;53.558;9.970;2023-02-28T05:07:27;15.37;;;5.53;;
14766;SDS011;7475;53.558;9.970;2023-02-28T05:09:52;12.83;;;6.87;;
14766;SDS011;7475;53.558;9.970;2023-02-28T05:12:18;12.63;;;6.60;;
14766;SDS011;7475;53.558;9.970;2023-02-28T05:14:43;14.03;;;6.03;;
14766;SDS011;7475;53.558;9.970;2023-02-28T05:17:09;11.37;;;5.20;;
14766;SDS011;7475;53.558;9.970;2023-02-28T05:19:35;10.50;;;5.77;;
14766;SDS011;7475;53.558;9.970;2023-02-28T05:22:00;8.00;;;4.90;;
14766;SDS011;7475;53.558;9.970;2023-02-28T05:24:25;7.13;;;4.63;;
14766;SDS011;7475;53.558;9.970;2023-02-28T05:26:53;7.60;;;4.67;;
14766;SDS011;7475;53.558;9.970;2023-02-28T05:29:21;9.00;;;4.90;;
14766;SDS011;7475;53.558;9.970;2023-02-28T05:31:52;9.30;;;4.87;;
14766;SDS011;7475;53.558;9.970;2023-02-28T05:34:17;11.70;;;5.40;;
14766;SDS011;7475;53.558;9.970;2023-02-28T05:36:42;7.60;;;4.53;;
14766;SDS011;7475;53.558;9.970;2023-02-28T05:39:08;8.50;;;4.90;;
14766;SDS011;7475;53.558;9.970;2023-02-28T05:41:37;9.70;;;5.47;;
14766;SDS011;7475;53.558;9.970;2023-02-28T05:44:02;8.53;;;4.80;;
14766;SDS011;7475;53.558;9.970;2023-02-28T05:46:28;9.30;;;5.37;;
14766;SDS011;7475;53.558;9.970;2023-02-28T05:48:53;11.50;;;5.30;;
14766;SDS011;7475;53.558;9.970;2023-02-28T05:51:18;10.73;;;5.23;;
14766;SDS011;7475;53.558;9.970;2023-02-28T05:53:43;14.17;;;5.47;;
14766;SDS011;7475;53.558;9.970;2023-02-28T05:56:08;11.00;;;5.60;;
14766;SDS011;7475;53.558;9.970;2023-02-28T05:58:34;13.47;;;5.80;;
14766;SDS011;7475;53.558;9.970;2023-02-28T06:01:00;12.73;;;6.10;;
14766;SDS011;7475;53.558;9.970;2023-02-28T06:03:25;13.27;;;5.90;;
14766;SDS011;7475;53.558;9.970;2023-02-28T06:05:51;12.23;;;5.93;;
14766;SDS011;7475;53.558;9.970;2023-02-28T06:08:16;18.57;;;6.93;;
14766;SDS011;7475;53.558;9.970;2023-02-28T06:10:41;20.33;;;7.70;;
14766;SDS011;7475;53.558;9.970;2023-02-28T06:13:06;15.83;;;7.23;;
14766;SDS011;7475;53.558;9.970;2023-02-28T06:15:32;21.20;;;7.23;;
14766;SDS011;7475;53.558;9.970;2023-02-28T06:17:57;17.17;;;8.07;;
14766;SDS011;7475;53.558;9.970;2023-02-28T06:20:23;16.70;;;7.57;;
14766;SDS011;7475;53.558;9.970;2023-02-28T06:22:48;25.10;;;9.60;;
14766;SDS011;7475;53.558;9.970;2023-02-28T06:25:15;27.03;;;10.57;;
14766;SDS011;7475;53.558;9.970;2023-02-28T06:27:41;25.70;;;10.17;;
14766;SDS011;7475;53.558;9.970;2023-02-28T06:30:06;29.77;;;11.70;;
14766;SDS011;7475;53.558;9.970;2023-02-28T06:32:31;26.33;;;10.73;;
14766;SDS011;7475;53.558;9.970;2023-02-28T06:34:57;28.13;;;11.03;;
14766;SDS011;7475;53.558;9.970;2023-02-28T06:37:23;23.60;;;10.40;;
14766;SDS011;7475;53.558;9.970;2023-02-28T06:39:51;18.07;;;9.03;;
14766;SDS011;7475;53.558;9.970;2023-02-28T06:42:16;17.70;;;9.93;;
14766;SDS011;7475;53.558;9.970;2023-02-28T06:44:41;21.77;;;8.90;;
14766;SDS011;7475;53.558;9.970;2023-02-28T06:47:07;17.40;;;8.03;;
14766;SDS011;7475;53.558;9.970;2023-02-28T06:49:33;17.73;;;9.20;;
14766;SDS011;7475;53.558;9.970;2023-02-28T06:51:59;15.40;;;7.63;;
14766;SDS011;7475;53.558;9.970;2023-02-28T06:54:24;12.23;;;6.10;;
14766;SDS011;7475;53.558;9.970;2023-02-28T06:56:50;12.07;;;5.53;;
14766;SDS011;7475;53.558;9.970;2023-02-28T06:59:15;10.77;;;4.97;;
14766;SDS011;7475;53.558;9.970;2023-02-28T07:01:41;9.30;;;4.97;;
14766;SDS011;7475;53.558;9.970;2023-02-28T07:04:06;7.83;;;4.97;;
14766;SDS011;7475;53.558;9.970;2023-02-28T07:06:32;10.97;;;5.20;;
14766;SDS011;7475;53.558;9.970;2023-02-28T07:08:57;15.40;;;5.03;;
14766;SDS011;7475;53.558;9.970;2023-02-28T07:11:25;8.77;;;4.93;;
14766;SDS011;7475;53.558;9.970;2023-02-28T07:13:51;12.20;;;4.43;;
14766;SDS011;7475;53.558;9.970;2023-02-28T07:16:16;12.30;;;5.33;;
14766;SDS011;7475;53.558;9.970;2023-02-28T07:18:41;9.00;;;4.50;;
14766;SDS011;7475;53.558;9.970;2023-02-28T07:21:08;9.60;;;4.33;;
14766;SDS011;7475;53.558;9.970;2023-02-28T07:23:33;12.87;;;4.90;;
14766;SDS011;7475;53.558;9.970;2023-02-28T07:25:58;7.40;;;4.37;;
14766;SDS011;7475;53.558;9.970;2023-02-28T07:28:24;12.77;;;4.90;;
14766;SDS011;7475;53.558;9.970;2023-02-28T07:30:49;8.13;;;4.53;;
14766;SDS011;7475;53.558;9.970;2023-02-28T07:33:14;9.13;;;4.07;;
14766;SDS011;7475;53.558;9.970;2023-02-28T07:35:39;9.30;;;4.57;;
14766;SDS011;7475;53.558;9.970;2023-02-28T07:38:05;11.90;;;4.90;;
14766;SDS011;7475;53.558;9.970;2023-02-28T07:40:32;9.27;;;4.83;;
14766;SDS011;7475;53.558;9.970;2023-02-28T07:42:58;8.80;;;4.23;;
14766;SDS011;7475;53.558;9.970;2023-02-28T07:45:23;7.80;;;4.60;;
14766;SDS011;7475;53.558;9.970;2023-02-28T07:47:49;7.30;;;4.33;;
14766;SDS011;7475;53.558;9.970;2023-02-28T07:50:15;9.18;;;4.90;;
14766;SDS011;7475;53.558;9.970;2023-02-28T07:52:41;11.50;;;5.35;;
14766;SDS011;7475;53.558;9.970;2023-02-28T07:55:07;9.27;;;5.20;;
14766;SDS011;7475;53.558;9.970;2023-02-28T07:57:32;9.02;;;4.70;;
14766;SDS011;7475;53.558;9.970;2023-02-28T07:59:58;14.60;;;5.28;;
14766;SDS011;7475;53.558;9.970;2023-02-28T08:02:23;11.38;;;4.47;;
14766;SDS011;7475;53.558;9.970;2023-02-28T08:04:48;9.75;;;5.35;;
14766;SDS011;7475;53.558;9.970;2023-02-28T08:07:14;11.82;;;5.30;;
14766;SDS011;7475;53.558;9.970;2023-02-28T08:09:40;13.15;;;5.25;;
14766;SDS011;7475;53.558;9.970;2023-02-28T08:12:05;10.43;;;4.80;;
14766;SDS011;7475;53.558;9.970;2023-02-28T08:14:31;8.43;;;5.00;;
14766;SDS011;7475;53.558;9.970;2023-02-28T08:16:56;7.50;;;4.72;;
14766;SDS011;7475;53.558;9.970;2023-02-28T08:19:21;27.52;;;19.95;;
14766;SDS011;7475;53.558;9.970;2023-02-28T08:21:46;9.80;;;5.82;;
14766;SDS011;7475;53.558;9.970;2023-02-28T08:24:12;10.07;;;6.13;;
14766;SDS011;7475;53.558;9.970;2023-02-28T08:26:37;13.27;;;4.73;;
14766;SDS011;7475;53.558;9.970;2023-02-28T08:29:02;12.35;;;4.78;;
14766;SDS011;7475;53.558;9.970;2023-02-28T08:31:27;5.80;;;4.37;;
14766;SDS011;7475;53.558;9.970;2023-02-28T08:33:52;7.07;;;3.95;;
14766;SDS011;7475;53.558;9.970;2023-02-28T08:36:20;15.40;;;5.63;;
14766;SDS011;7475;53.558;9.970;2023-02-28T08:38:45;12.55;;;4.20;;
14766;SDS011;7475;53.558;9.970;2023-02-28T08:41:11;10.30;;;4.03;;
14766;SDS011;7475;53.558;9.970;2023-02-28T08:43:37;6.45;;;3.85;;
14766;SDS011;7475;53.558;9.970;2023-02-28T08:46:03;6.97;;;3.47;;
14766;SDS011;7475;53.558;9.970;2023-02-28T08:48:29;6.78;;;3.78;;
14766;SDS011;7475;53.558;9.970;2023-02-28T08:50:55;6.35;;;3.58;;
14766;SDS011;7475;53.558;9.970;2023-02-28T08:53:21;8.70;;;3.80;;
14766;SDS011;7475;53.558;9.970;2023-02-28T08:55:46;11.17;;;4.73;;
14766;SDS011;7475;53.558;9.970;2023-02-28T08:58:11;7.70;;;3.30;;
14766;SDS011;7475;53.558;9.970;2023-02-28T09:00:36;7.37;;;2.90;;
14766;SDS011;7475;53.558;9.970;2023-02-28T09:03:02;4.77;;;2.80;;
14766;SDS011;7475;53.558;9.970;2023-02-28T09:05:27;7.47;;;3.10;;
14766;SDS011;7475;53.558;9.970;2023-02-28T09:07:54;8.77;;;3.05;;
14766;SDS011;7475;53.558;9.970;2023-02-28T09:10:19;6.90;;;2.83;;
14766;SDS011;7475;53.558;9.970;2023-02-28T09:12:44;9.45;;;2.92;;
14766;SDS011;7475;53.558;9.970;2023-02-28T09:15:11;16.52;;;3.08;;
14766;SDS011;7475;53.558;9.970;2023-02-28T09:17:36;8.73;;;2.22;;
14766;SDS011;7475;53.558;9.970;2023-02-28T09:20:02;4.55;;;2.50;;
14766;SDS011;7475;53.558;9.970;2023-02-28T09:22:27;10.07;;;3.80;;
14766;SDS011;7475;53.558;9.970;2023-02-28T09:24:52;2.63;;;1.60;;
14766;SDS011;7475;53.558;9.970;2023-02-28T09:27:17;5.50;;;1.63;;
14766;SDS011;7475;53.558;9.970;2023-02-28T09:29:42;4.03;;;1.70;;
14766;SDS011;7475;53.558;9.970;2023-02-28T09:32:08;3.40;;;1.38;;
14766;SDS011;7475;53.558;9.970;2023-02-28T09:34:33;8.68;;;1.70;;
14766;SDS011;7475;53.558;9.970;2023-02-28T09:36:58;2.63;;;1.20;;
14766;SDS011;7475;53.558;9.970;2023-02-28T09:39:23;5.90;;;1.43;;
14766;SDS011;7475;53.558;9.970;2023-02-28T09:41:51;2.92;;;1.02;;
14766;SDS011;7475;53.558;9.970;2023-02-28T09:44:28;11.77;;;1.45;;
14766;SDS011;7475;53.558;9.970;2023-02-28T09:49:47;1.50;;;1.10;;
14766;SDS011;7475;53.558;9.970;2023-02-28T09:52:19;3.20;;;1.10;;
14766;SDS011;7475;53.558;9.970;2023-02-28T09:54:45;2.53;;;0.75;;
14766;SDS011;7475;53.558;9.970;2023-02-28T10:02:17;1.55;;;1.08;;
14766;SDS011;7475;53.558;9.970;2023-02-28T10:10:02;1.55;;;0.88;;
14766;SDS011;7475;53.558;9.970;2023-02-28T10:12:28;1.55;;;0.93;;
14766;SDS011;7475;53.558;9.970;2023-02-28T10:14:54;1.77;;;0.90;;
14766;SDS011;7475;53.558;9.970;2023-02-28T10:17:22;2.45;;;1.33;;
14766;SDS011;7475;53.558;9.970;2023-02-28T10:22:15;3.97;;;1.00;;
14766;SDS011;7475;53.558;9.970;2023-02-28T10:24:46;1.20;;;1.10;;
14766;SDS011;7475;53.558;9.970;2023-02-28T10:29:40;5.80;;;1.88;;
14766;SDS011;7475;53.558;9.970;2023-02-28T10:32:06;4.70;;;1.25;;
14766;SDS011;7475;53.558;9.970;2023-02-28T10:34:32;1.95;;;1.33;;
14766;SDS011;7475;53.558;9.970;2023-02-28T10:36:57;5.10;;;1.80;;
14766;SDS011;7475;53.558;9.970;2023-02-28T10:39:36;2.63;;;1.20;;
14766;SDS011;7475;53.558;9.970;2023-02-28T10:42:02;4.40;;;1.20;;
14766;SDS011;7475;53.558;9.970;2023-02-28T10:44:27;6.05;;;2.90;;
14766;SDS011;7475;53.558;9.970;2023-02-28T10:46:53;2.58;;;1.35;;
14766;SDS011;7475;53.558;9.970;2023-02-28T10:49:22;3.42;;;1.95;;
14766;SDS011;7475;53.558;9.970;2023-02-28T10:51:48;3.63;;;1.45;;
14766;SDS011;7475;53.558;9.970;2023-02-28T10:54:15;10.73;;;5.07;;
14766;SDS011;7475;53.558;9.970;2023-02-28T10:56:40;4.45;;;1.65;;
14766;SDS011;7475;53.558;9.970;2023-02-28T11:01:43;5.07;;;2.85;;
14766;SDS011;7475;53.558;9.970;2023-02-28T11:07:01;3.55;;;2.20;;
14766;SDS011;7475;53.558;9.970;2023-02-28T11:09:28;2.97;;;1.58;;
14766;SDS011;7475;53.558;9.970;2023-02-28T11:11:54;7.47;;;1.65;;
14766;SDS011;7475;53.558;9.970;2023-02-28T11:16:45;4.57;;;1.65;;
14766;SDS011;7475;53.558;9.970;2023-02-28T11:19:16;2.97;;;1.60;;
14766;SDS011;7475;53.558;9.970;2023-02-28T11:21:45;5.80;;;2.67;;
14766;SDS011;7475;53.558;9.970;2023-02-28T11:24:29;4.70;;;1.88;;
14766;SDS011;7475;53.558;9.970;2023-02-28T11:26:55;2.35;;;1.50;;
14766;SDS011;7475;53.558;9.970;2023-02-28T11:29:21;4.43;;;1.35;;
14766;SDS011;7475;53.558;9.970;2023-02-28T11:35:00;4.28;;;1.85;;
14766;SDS011;7475;53.558;9.970;2023-02-28T11:37:25;2.88;;;1.48;;
14766;SDS011;7475;53.558;9.970;2023-02-28T11:39:52;2.70;;;1.48;;
14766;SDS011;7475;53.558;9.970;2023-02-28T11:49:50;3.30;;;1.70;;
14766;SDS011;7475;53.558;9.970;2023-02-28T11:52:36;3.63;;;1.40;;
14766;SDS011;7475;53.558;9.970;2023-02-28T11:55:25;3.42;;;1.38;;
14766;SDS011;7475;53.558;9.970;2023-02-28T11:58:12;5.07;;;2.15;;
14766;SDS011;7475;53.558;9.970;2023-02-28T12:05:57;3.15;;;2.10;;
14766;SDS011;7475;53.558;9.970;2023-02-28T12:08:38;4.43;;;1.60;;
14766;SDS011;7475;53.558;9.970;2023-02-28T12:11:12;2.45;;;1.48;;
14766;SDS011;7475;53.558;9.970;2023-02-28T12:13:48;6.47;;;1.67;;
14766;SDS011;7475;53.558;9.970;2023-02-28T12:16:18;4.13;;;1.65;;
14766;SDS011;7475;53.558;9.970;2023-02-28T12:24:14;4.60;;;1.80;;
14766;SDS011;7475;53.558;9.970;2023-02-28T12:26:42;6.13;;;1.67;;
14766;SDS011;7475;53.558;9.970;2023-02-28T12:29:25;2.47;;;1.80;;
14766;SDS011;7475;53.558;9.970;2023-02-28T12:32:09;7.72;;;4.68;;
14766;SDS011;7475;53.558;9.970;2023-02-28T12:34:39;4.18;;;2.00;;
14766;SDS011;7475;53.558;9.970;2023-02-28T12:37:10;5.88;;;2.38;;
14766;SDS011;7475;53.558;9.970;2023-02-28T12:39:40;4.45;;;1.42;;
14766;SDS011;7475;53.558;9.970;2023-02-28T12:42:09;4.43;;;1.90;;
14766;SDS011;7475;53.558;9.970;2023-02-28T12:44:37;5.32;;;2.05;;
14766;SDS011;7475;53.558;9.970;2023-02-28T12:47:05;7.55;;;3.95;;
14766;SDS011;7475;53.558;9.970;2023-02-28T12:49:36;8.48;;;4.30;;
14766;SDS011;7475;53.558;9.970;2023-02-28T12:52:03;4.78;;;1.98;;
14766;SDS011;7475;53.558;9.970;2023-02-28T12:54:36;8.43;;;6.03;;
14766;SDS011;7475;53.558;9.970;2023-02-28T13:09:57;4.05;;;1.83;;
14766;SDS011;7475;53.558;9.970;2023-02-28T13:12:23;5.25;;;1.83;;
14766;SDS011;7475;53.558;9.970;2023-02-28T13:14:49;5.15;;;1.77;;
14766;SDS011;7475;53.558;9.970;2023-02-28T13:17:18;5.00;;;2.25;;
14766;SDS011;7475;53.558;9.970;2023-02-28T13:24:51;3.92;;;1.58;;
14766;SDS011;7475;53.558;9.970;2023-02-28T13:27:24;5.32;;;1.83;;
14766;SDS011;7475;53.558;9.970;2023-02-28T13:29:56;9.27;;;2.05;;
14766;SDS011;7475;53.558;9.970;2023-02-28T13:32:34;4.63;;;3.30;;
14766;SDS011;7475;53.558;9.970;2023-02-28T13:40:26;4.75;;;2.20;;
14766;SDS011;7475;53.558;9.970;2023-02-28T13:42:51;4.32;;;1.67;;
14766;SDS011;7475;53.558;9.970;2023-02-28T13:45:27;6.80;;;3.42;;
14766;SDS011;7475;53.558;9.970;2023-02-28T13:50:29;6.35;;;2.72;;
14766;SDS011;7475;53.558;9.970;2023-02-28T13:53:06;6.75;;;1.80;;
14766;SDS011;7475;53.558;9.970;2023-02-28T14:08:53;4.55;;;2.00;;
14766;SDS011;7475;53.558;9.970;2023-02-28T14:11:26;4.25;;;2.45;;
14766;SDS011;7475;53.558;9.970;2023-02-28T14:13:52;7.32;;;1.90;;
14766;SDS011;7475;53.558;9.970;2023-02-28T14:16:20;6.20;;;1.73;;
14766;SDS011;7475;53.558;9.970;2023-02-28T14:18:55;4.47;;;1.60;;
14766;SDS011;7475;53.558;9.970;2023-02-28T14:21:33;3.13;;;1.55;;
14766;SDS011;7475;53.558;9.970;2023-02-28T14:26:36;3.33;;;1.50;;
14766;SDS011;7475;53.558;9.970;2023-02-28T14:29:30;2.72;;;1.83;;
14766;SDS011;7475;53.558;9.970;2023-02-28T14:36:57;6.10;;;1.77;;
14766;SDS011;7475;53.558;9.970;2023-02-28T14:39:24;2.70;;;1.65;;
14766;SDS011;7475;53.558;9.970;2023-02-28T14:41:50;9.60;;;1.98;;
14766;SDS011;7475;53.558;9.970;2023-02-28T14:44:18;6.43;;;2.72;;
14766;SDS011;7475;53.558;9.970;2023-02-28T14:46:44;6.97;;;2.22;;
14766;SDS011;7475;53.558;9.970;2023-02-28T14:51:44;5.68;;;1.98;;
14766;SDS011;7475;53.558;9.970;2023-02-28T14:54:13;6.32;;;2.70;;
14766;SDS011;7475;53.558;9.970;2023-02-28T14:56:39;3.58;;;1.70;;
14766;SDS011;7475;53.558;9.970;2023-02-28T14:59:05;8.15;;;2.72;;
14766;SDS011;7475;53.558;9.970;2023-02-28T15:01:46;4.72;;;1.95;;
14766;SDS011;7475;53.558;9.970;2023-02-28T15:04:15;7.73;;;4.20;;
14766;SDS011;7475;53.558;9.970;2023-02-28T15:06:43;8.60;;;2.67;;
14766;SDS011;7475;53.558;9.970;2023-02-28T15:09:09;7.77;;;1.97;;
14766;SDS011;7475;53.558;9.970;2023-02-28T15:11:35;3.78;;;2.03;;
14766;SDS011;7475;53.558;9.970;2023-02-28T15:14:00;5.68;;;2.30;;
14766;SDS011;7475;53.558;9.970;2023-02-28T15:16:30;6.10;;;2.10;;
14766;SDS011;7475;53.558;9.970;2023-02-28T15:19:00;5.72;;;2.10;;
14766;SDS011;7475;53.558;9.970;2023-02-28T15:21:29;7.22;;;2.35;;
14766;SDS011;7475;53.558;9.970;2023-02-28T15:23:57;5.25;;;1.95;;
14766;SDS011;7475;53.558;9.970;2023-02-28T15:26:24;7.68;;;3.88;;
14766;SDS011;7475;53.558;9.970;2023-02-28T15:28:52;5.68;;;2.70;;
14766;SDS011;7475;53.558;9.970;2023-02-28T15:31:27;5.32;;;2.05;;
14766;SDS011;7475;53.558;9.970;2023-02-28T15:33:53;5.13;;;1.80;;
14766;SDS011;7475;53.558;9.970;2023-02-28T15:36:19;4.65;;;2.00;;
14766;SDS011;7475;53.558;9.970;2023-02-28T15:38:49;5.35;;;1.80;;
14766;SDS011;7475;53.558;9.970;2023-02-28T15:41:23;12.60;;;2.40;;
14766;SDS011;7475;53.558;9.970;2023-02-28T15:43:49;8.68;;;4.75;;
14766;SDS011;7475;53.558;9.970;2023-02-28T15:46:34;7.60;;;2.33;;
14766;SDS011;7475;53.558;9.970;2023-02-28T15:48:59;5.32;;;2.10;;
14766;SDS011;7475;53.558;9.970;2023-02-28T15:51:28;2.75;;;1.50;;
14766;SDS011;7475;53.558;9.970;2023-02-28T15:53:59;91.05;;;57.20;;
14766;SDS011;7475;53.558;9.970;2023-02-28T15:58:56;4.15;;;1.60;;
14766;SDS011;7475;53.558;9.970;2023-02-28T16:01:25;3.25;;;1.73;;
14766;SDS011;7475;53.558;9.970;2023-02-28T16:03:52;5.05;;;2.10;;
14766;SDS011;7475;53.558;9.970;2023-02-28T16:08:47;158.57;;;105.85;;
14766;SDS011;7475;53.558;9.970;2023-02-28T16:11:13;175.55;;;115.00;;
14766;SDS011;7475;53.558;9.970;2023-02-28T16:13:39;8.45;;;4.47;;
14766;SDS011;7475;53.558;9.970;2023-02-28T16:16:04;2.30;;;1.80;;
14766;SDS011;7475;53.558;9.970;2023-02-28T16:18:29;2.75;;;1.48;;
14766;SDS011;7475;53.558;9.970;2023-02-28T16:20:54;7.60;;;4.40;;
14766;SDS011;7475;53.558;9.970;2023-02-28T16:23:20;3.20;;;1.70;;
14766;SDS011;7475;53.558;9.970;2023-02-28T16:25:45;5.40;;;2.77;;
14766;SDS011;7475;53.558;9.970;2023-02-28T16:28:20;3.15;;;1.60;;
14766;SDS011;7475;53.558;9.970;2023-02-28T16:30:45;4.13;;;1.50;;
14766;SDS011;7475;53.558;9.970;2023-02-28T16:33:11;5.93;;;1.80;;
14766;SDS011;7475;53.558;9.970;2023-02-28T16:35:36;27.98;;;17.20;;
14766;SDS011;7475;53.558;9.970;2023-02-28T16:38:01;7.25;;;2.45;;
14766;SDS011;7475;53.558;9.970;2023-02-28T16:40:26;3.17;;;1.93;;
14766;SDS011;7475;53.558;9.970;2023-02-28T16:42:54;5.43;;;3.72;;
14766;SDS011;7475;53.558;9.970;2023-02-28T16:45:21;5.18;;;2.80;;
14766;SDS011;7475;53.558;9.970;2023-02-28T16:47:47;56.72;;;35.65;;
14766;SDS011;7475;53.558;9.970;2023-02-28T16:50:16;4.65;;;3.00;;
14766;SDS011;7475;53.558;9.970;2023-02-28T16:52:42;4.10;;;2.00;;
14766;SDS011;7475;53.558;9.970;2023-02-28T16:55:07;6.70;;;3.70;;
14766;SDS011;7475;53.558;9.970;2023-02-28T16:57:33;5.57;;;2.50;;
14766;SDS011;7475;53.558;9.970;2023-02-28T16:59:58;7.93;;;4.60;;
14766;SDS011;7475;53.558;9.970;2023-02-28T17:02:23;5.85;;;1.80;;
14766;SDS011;7475;53.558;9.970;2023-02-28T17:04:48;8.30;;;5.40;;
14766;SDS011;7475;53.558;9.970;2023-02-28T17:07:14;10.93;;;5.72;;